Time;durP1;ratioP1;P1;durP2;ratioP2;P2;SDS_P1;SDS_P2;PMS_P1;PMS_P2;Temp;Humidity;BMP_temperature;BMP_pressure;BME280_temperature;BME280_humidity;BME280_pressure;Samples;Min_cycle;Max_cycle;Signal;HPM_P1;HPM_P2
2023/12/22 00:00:10;;;;;;;18.80;6.43;;;;;;;;;;5126403;27;20065;-66
2023/12/22 00:02:36;;;;;;;28.92;5.90;;;;;;;;;;5125607;27;20189;-66
2023/12/22 00:05:02;;;;;;;19.85;5.53;;;;;;;;;;5089682;27;20041;-66
2023/12/22 00:07:28;;;;;;;16.00;5.38;;;;;;;;;;5124919;27;20047;-66
2023/12/22 00:09:54;;;;;;;17.75;5.10;;;;;;;;;;5125940;27;20043;-66
2023/12/22 00:12:20;;;;;;;19.75;6.35;;;;;;;;;;5125397;27;20098;-65
2023/12/22 00:14:47;;;;;;;21.70;6.38;;;;;;;;;;5106373;27;20043;-65
2023/12/22 00:17:13;;;;;;;9.88;4.55;;;;;;;;;;5125153;27;20043;-65
2023/12/22 00:19:39;;;;;;;14.60;4.50;;;;;;;;;;5106952;27;20458;-65
2023/12/22 00:22:05;;;;;;;14.68;5.00;;;;;;;;;;5105440;27;20066;-65
2023/12/22 00:24:31;;;;;;;13.68;5.00;;;;;;;;;;5124363;27;20039;-66
2023/12/22 00:26:57;;;;;;;17.65;6.15;;;;;;;;;;5106526;27;20111;-66
2023/12/22 00:29:23;;;;;;;16.90;5.88;;;;;;;;;;5124684;27;20491;-66
2023/12/22 00:31:49;;;;;;;25.58;6.40;;;;;;;;;;5124977;27;20043;-66
2023/12/22 00:34:15;;;;;;;12.68;4.88;;;;;;;;;;5125956;27;20182;-65
2023/12/22 00:36:42;;;;;;;15.90;6.55;;;;;;;;;;5125207;27;20118;-67
2023/12/22 00:39:08;;;;;;;18.13;6.43;;;;;;;;;;5124695;27;20043;-66
2023/12/22 00:41:34;;;;;;;19.48;4.90;;;;;;;;;;5124048;27;20582;-66
2023/12/22 00:44:00;;;;;;;15.57;5.43;;;;;;;;;;5125097;27;20039;-66
2023/12/22 00:46:26;;;;;;;19.65;5.28;;;;;;;;;;5124726;27;20529;-66
2023/12/22 00:48:52;;;;;;;19.30;6.07;;;;;;;;;;5123560;27;20043;-66
2023/12/22 00:51:19;;;;;;;17.52;5.50;;;;;;;;;;5123713;27;20376;-66
2023/12/22 00:53:45;;;;;;;18.38;5.25;;;;;;;;;;5124841;27;21125;-65
2023/12/22 00:56:13;;;;;;;20.67;6.38;;;;;;;;;;5106362;27;20382;-65
2023/12/22 00:58:39;;;;;;;18.17;5.95;;;;;;;;;;5125416;27;20475;-66
2023/12/22 01:01:05;;;;;;;16.38;5.75;;;;;;;;;;5125652;27;20637;-65
2023/12/22 01:03:32;;;;;;;11.88;4.28;;;;;;;;;;5125879;27;20378;-65
2023/12/22 01:05:58;;;;;;;10.02;4.40;;;;;;;;;;5105572;27;20043;-65
2023/12/22 01:08:24;;;;;;;12.65;4.38;;;;;;;;;;5105851;27;20097;-65
2023/12/22 01:10:50;;;;;;;9.02;4.57;;;;;;;;;;5124658;27;20043;-65
2023/12/22 01:13:16;;;;;;;17.10;4.80;;;;;;;;;;5124770;27;20039;-65
2023/12/22 01:15:43;;;;;;;9.90;3.85;;;;;;;;;;5124496;27;20521;-64
2023/12/22 01:18:10;;;;;;;15.27;5.13;;;;;;;;;;5123834;27;20049;-66
2023/12/22 01:20:36;;;;;;;17.27;4.75;;;;;;;;;;5123994;27;21507;-65
2023/12/22 01:23:02;;;;;;;13.38;4.47;;;;;;;;;;5123623;27;20051;-65
2023/12/22 01:25:28;;;;;;;11.88;4.15;;;;;;;;;;5125305;27;20047;-66
2023/12/22 01:27:54;;;;;;;14.05;4.75;;;;;;;;;;5123552;27;20469;-66
2023/12/22 01:30:20;;;;;;;16.40;4.57;;;;;;;;;;5124806;27;20039;-66
2023/12/22 01:32:46;;;;;;;16.40;4.43;;;;;;;;;;5123363;27;20039;-65
2023/12/22 01:35:12;;;;;;;14.18;5.43;;;;;;;;;;5124788;27;20077;-65
2023/12/22 01:37:39;;;;;;;21.17;5.40;;;;;;;;;;5121234;27;20103;-65
2023/12/22 01:40:05;;;;;;;13.48;3.97;;;;;;;;;;5123747;27;20054;-64
2023/12/22 01:42:31;;;;;;;12.75;4.90;;;;;;;;;;5123640;27;20455;-66
2023/12/22 01:44:57;;;;;;;20.25;4.70;;;;;;;;;;5105117;27;20042;-64
2023/12/22 01:47:24;;;;;;;22.02;5.93;;;;;;;;;;5123300;27;20039;-65
2023/12/22 01:49:51;;;;;;;12.02;4.47;;;;;;;;;;5105198;27;20050;-65
2023/12/22 01:52:17;;;;;;;22.33;6.30;;;;;;;;;;5122084;27;20165;-66
2023/12/22 01:54:43;;;;;;;15.15;4.88;;;;;;;;;;5123700;27;20066;-66
2023/12/22 01:57:10;;;;;;;15.60;5.20;;;;;;;;;;5123752;27;20050;-66
2023/12/22 01:59:36;;;;;;;17.40;4.93;;;;;;;;;;5124175;27;20043;-65
2023/12/22 02:02:03;;;;;;;17.63;5.25;;;;;;;;;;5123732;27;20608;-65
2023/12/22 02:04:31;;;;;;;18.75;4.68;;;;;;;;;;5124066;27;20039;-64
2023/12/22 02:07:02;;;;;;;19.55;6.47;;;;;;;;;;5122721;27;20062;-65
2023/12/22 02:09:28;;;;;;;11.88;4.28;;;;;;;;;;5123501;27;21277;-66
2023/12/22 02:11:54;;;;;;;10.70;4.40;;;;;;;;;;5103797;27;20371;-66
2023/12/22 02:14:20;;;;;;;14.77;4.05;;;;;;;;;;5104486;27;20035;-64
2023/12/22 02:16:49;;;;;;;13.85;4.65;;;;;;;;;;5123764;27;20031;-66
2023/12/22 02:19:18;;;;;;;12.27;3.92;;;;;;;;;;5123787;27;20350;-65
2023/12/22 02:22:19;;;;;;;12.63;4.07;;;;;;;;;;5122614;27;20082;-65
2023/12/22 02:24:45;;;;;;;10.90;3.60;;;;;;;;;;5038359;28;20674;-66
2023/12/22 02:27:30;;;;;;;10.05;4.32;;;;;;;;;;5105739;27;20187;-66
2023/12/22 02:30:02;;;;;;;17.40;4.88;;;;;;;;;;5123924;27;20097;-66
2023/12/22 02:32:31;;;;;;;20.45;4.72;;;;;;;;;;5104339;28;20035;-66
2023/12/22 02:34:58;;;;;;;13.65;3.25;;;;;;;;;;5104664;27;20529;-65
2023/12/22 02:37:24;;;;;;;9.43;3.13;;;;;;;;;;5121850;27;20112;-66
2023/12/22 02:39:54;;;;;;;9.77;3.10;;;;;;;;;;5122554;27;20043;-65
2023/12/22 02:42:26;;;;;;;13.63;2.90;;;;;;;;;;5122607;27;20086;-65
2023/12/22 02:44:52;;;;;;;11.98;3.83;;;;;;;;;;5121823;27;20122;-64
2023/12/22 02:47:18;;;;;;;11.55;4.18;;;;;;;;;;5120944;27;20976;-65
2023/12/22 02:49:44;;;;;;;13.23;4.18;;;;;;;;;;5123425;27;20051;-67
2023/12/22 02:52:10;;;;;;;12.93;2.83;;;;;;;;;;5121979;27;20901;-66
2023/12/22 02:54:39;;;;;;;10.50;4.22;;;;;;;;;;5120356;28;20438;-64
2023/12/22 02:57:05;;;;;;;10.32;3.33;;;;;;;;;;5122840;28;20043;-64
2023/12/22 02:59:32;;;;;;;8.10;3.28;;;;;;;;;;5123062;27;20039;-65
2023/12/22 03:01:58;;;;;;;12.25;3.88;;;;;;;;;;5103475;28;20062;-66
2023/12/22 03:04:24;;;;;;;11.68;4.15;;;;;;;;;;5122988;27;20039;-66
2023/12/22 03:06:50;;;;;;;16.00;4.47;;;;;;;;;;5122302;27;20057;-65
2023/12/22 03:09:17;;;;;;;9.70;3.70;;;;;;;;;;5103357;28;20524;-66
2023/12/22 03:11:43;;;;;;;10.07;4.30;;;;;;;;;;5122448;27;20095;-65
2023/12/22 03:14:10;;;;;;;12.63;4.35;;;;;;;;;;5127707;27;20067;-65
2023/12/22 03:16:36;;;;;;;9.85;3.75;;;;;;;;;;5127036;27;20046;-66
2023/12/22 03:19:02;;;;;;;11.98;3.88;;;;;;;;;;5126560;27;20047;-65
2023/12/22 03:21:28;;;;;;;11.57;5.07;;;;;;;;;;5089417;27;20525;-65
2023/12/22 03:23:54;;;;;;;13.60;3.70;;;;;;;;;;5127017;27;20107;-65
2023/12/22 03:26:21;;;;;;;12.75;4.10;;;;;;;;;;5125219;27;20346;-66
2023/12/22 03:28:47;;;;;;;12.10;3.70;;;;;;;;;;5127051;27;20180;-65
2023/12/22 03:31:13;;;;;;;12.23;4.32;;;;;;;;;;5107379;27;20328;-66
2023/12/22 03:33:39;;;;;;;8.82;3.38;;;;;;;;;;5125653;27;20035;-65
2023/12/22 03:36:05;;;;;;;19.63;5.15;;;;;;;;;;5125952;27;20062;-66
2023/12/22 03:38:31;;;;;;;17.38;5.03;;;;;;;;;;5126491;27;20118;-67
2023/12/22 03:40:57;;;;;;;11.07;4.45;;;;;;;;;;5125563;27;20043;-66
2023/12/22 03:43:23;;;;;;;19.13;4.10;;;;;;;;;;5126532;27;20043;-67
2023/12/22 03:45:49;;;;;;;18.63;5.30;;;;;;;;;;5126868;27;20062;-65
2023/12/22 03:48:16;;;;;;;19.63;6.03;;;;;;;;;;5124990;27;20346;-66
2023/12/22 03:50:42;;;;;;;12.75;4.55;;;;;;;;;;5125584;27;20046;-67
2023/12/22 03:53:08;;;;;;;24.02;5.30;;;;;;;;;;5124970;27;20170;-66
2023/12/22 03:55:34;;;;;;;10.30;5.20;;;;;;;;;;5125983;27;20035;-66
2023/12/22 03:58:00;;;;;;;13.77;3.47;;;;;;;;;;5107305;27;20043;-66
2023/12/22 04:00:26;;;;;;;11.02;4.30;;;;;;;;;;5126395;27;20181;-65
2023/12/22 04:02:53;;;;;;;16.85;5.78;;;;;;;;;;5106699;27;20054;-66
2023/12/22 04:05:19;;;;;;;15.30;4.35;;;;;;;;;;5106629;27;20061;-66
2023/12/22 04:07:45;;;;;;;12.80;4.30;;;;;;;;;;5123931;27;20626;-66
2023/12/22 04:10:11;;;;;;;14.70;5.00;;;;;;;;;;5126296;27;20043;-66
2023/12/22 04:12:37;;;;;;;16.88;4.75;;;;;;;;;;5125696;27;20046;-66
2023/12/22 04:15:03;;;;;;;14.02;4.68;;;;;;;;;;5126210;27;20509;-66
2023/12/22 04:17:30;;;;;;;14.82;4.88;;;;;;;;;;5106230;27;20039;-65
2023/12/22 04:19:56;;;;;;;13.95;5.97;;;;;;;;;;5124608;27;20058;-65
2023/12/22 04:22:23;;;;;;;16.02;5.80;;;;;;;;;;5124158;27;20062;-65
2023/12/22 04:24:49;;;;;;;13.95;4.75;;;;;;;;;;5124687;27;20046;-66
2023/12/22 04:27:15;;;;;;;14.82;5.72;;;;;;;;;;5106945;27;20445;-66
2023/12/22 04:29:41;;;;;;;12.13;4.05;;;;;;;;;;5123665;27;20161;-65
2023/12/22 04:32:07;;;;;;;15.85;4.95;;;;;;;;;;5124581;27;20136;-65
2023/12/22 04:34:33;;;;;;;11.55;4.93;;;;;;;;;;5125571;27;20435;-66
2023/12/22 04:37:00;;;;;;;17.30;4.28;;;;;;;;;;5125490;27;20401;-65
2023/12/22 04:39:26;;;;;;;11.30;4.57;;;;;;;;;;5105628;27;20039;-66
2023/12/22 04:41:52;;;;;;;14.07;4.57;;;;;;;;;;5125088;27;20039;-66
2023/12/22 04:44:18;;;;;;;13.20;4.90;;;;;;;;;;5124975;27;20042;-66
2023/12/22 04:46:44;;;;;;;18.08;4.80;;;;;;;;;;5106143;27;20047;-65
2023/12/22 04:49:10;;;;;;;17.50;4.55;;;;;;;;;;5124496;27;20038;-66
2023/12/22 04:51:37;;;;;;;15.20;4.63;;;;;;;;;;5124281;27;20565;-66
2023/12/22 04:54:03;;;;;;;18.80;4.82;;;;;;;;;;5124779;27;20351;-66
2023/12/22 04:56:29;;;;;;;15.00;4.68;;;;;;;;;;5125087;27;20239;-66
2023/12/22 04:58:55;;;;;;;12.80;4.55;;;;;;;;;;5125009;27;20038;-66
2023/12/22 05:01:21;;;;;;;18.30;6.05;;;;;;;;;;5125882;27;20637;-66
2023/12/22 05:03:47;;;;;;;19.30;5.20;;;;;;;;;;5124631;27;20538;-65
2023/12/22 05:06:13;;;;;;;8.15;3.60;;;;;;;;;;5124956;27;20137;-66
2023/12/22 05:08:39;;;;;;;15.00;4.97;;;;;;;;;;5124394;27;20328;-66
2023/12/22 05:11:05;;;;;;;14.10;6.10;;;;;;;;;;5105622;27;20097;-66
2023/12/22 05:13:31;;;;;;;17.10;4.78;;;;;;;;;;5124534;27;20131;-66
2023/12/22 05:15:58;;;;;;;15.48;4.70;;;;;;;;;;5125021;27;20035;-65
2023/12/22 05:18:24;;;;;;;17.58;5.05;;;;;;;;;;5125310;27;20035;-65
2023/12/22 05:20:52;;;;;;;12.40;4.88;;;;;;;;;;5123940;27;20043;-65
2023/12/22 05:23:18;;;;;;;15.95;5.05;;;;;;;;;;5123761;27;20108;-66
2023/12/22 05:25:44;;;;;;;10.70;4.53;;;;;;;;;;5124699;27;20054;-67
2023/12/22 05:28:10;;;;;;;9.63;4.95;;;;;;;;;;5124425;27;20521;-66
2023/12/22 05:30:36;;;;;;;16.05;4.15;;;;;;;;;;5124269;27;20523;-65
2023/12/22 05:33:02;;;;;;;15.48;5.22;;;;;;;;;;5105575;27;20046;-66
2023/12/22 05:35:28;;;;;;;14.55;4.05;;;;;;;;;;5123412;27;20024;-66
2023/12/22 05:37:54;;;;;;;12.63;4.45;;;;;;;;;;5124385;27;20035;-66
2023/12/22 05:40:20;;;;;;;9.02;4.00;;;;;;;;;;5124489;27;20122;-66
2023/12/22 05:42:47;;;;;;;15.93;4.32;;;;;;;;;;5124106;27;20031;-66
2023/12/22 05:45:13;;;;;;;13.07;3.70;;;;;;;;;;5121192;27;20042;-65
2023/12/22 05:47:39;;;;;;;15.70;5.05;;;;;;;;;;5120742;27;20417;-66
2023/12/22 05:50:06;;;;;;;14.15;4.70;;;;;;;;;;5102429;27;20517;-66
2023/12/22 05:52:32;;;;;;;14.85;5.57;;;;;;;;;;5101503;27;20597;-66
2023/12/22 05:54:58;;;;;;;13.95;4.72;;;;;;;;;;5123371;27;20031;-66
2023/12/22 05:57:27;;;;;;;16.13;4.40;;;;;;;;;;5104402;27;20043;-66
2023/12/22 05:59:54;;;;;;;10.88;4.28;;;;;;;;;;5124330;27;20043;-66
2023/12/22 06:02:20;;;;;;;9.43;4.18;;;;;;;;;;5123416;27;20490;-66
2023/12/22 06:04:46;;;;;;;22.95;5.35;;;;;;;;;;5123545;27;20569;-65
2023/12/22 06:07:12;;;;;;;13.93;4.20;;;;;;;;;;5123199;27;20050;-65
2023/12/22 06:09:39;;;;;;;8.50;3.65;;;;;;;;;;5123688;27;20039;-65
2023/12/22 06:12:06;;;;;;;9.75;3.72;;;;;;;;;;5122871;27;20053;-65
2023/12/22 06:14:34;;;;;;;12.43;4.95;;;;;;;;;;5102789;27;20384;-65
2023/12/22 06:17:01;;;;;;;21.02;4.60;;;;;;;;;;5123698;27;20080;-65
2023/12/22 06:19:30;;;;;;;13.30;4.05;;;;;;;;;;5123379;27;20047;-67
2023/12/22 06:21:57;;;;;;;12.57;3.88;;;;;;;;;;5103675;27;20055;-65
2023/12/22 06:24:23;;;;;;;18.17;4.22;;;;;;;;;;5123264;27;20043;-67
2023/12/22 06:26:50;;;;;;;13.45;4.20;;;;;;;;;;5122940;27;20047;-66
2023/12/22 06:29:16;;;;;;;10.15;3.50;;;;;;;;;;5121799;27;20493;-66
2023/12/22 06:31:42;;;;;;;10.98;3.92;;;;;;;;;;5123092;27;20039;-65
2023/12/22 06:34:08;;;;;;;9.20;3.67;;;;;;;;;;5123605;27;20111;-66
2023/12/22 06:36:34;;;;;;;14.00;3.45;;;;;;;;;;5122306;27;21061;-66
2023/12/22 06:39:00;;;;;;;10.10;3.88;;;;;;;;;;5103787;27;20270;-66
2023/12/22 06:41:26;;;;;;;9.93;3.22;;;;;;;;;;5102913;27;20561;-66
2023/12/22 06:43:53;;;;;;;19.83;4.07;;;;;;;;;;5103294;27;20543;-66
2023/12/22 06:46:19;;;;;;;8.98;3.90;;;;;;;;;;5122895;27;20134;-66
2023/12/22 06:48:46;;;;;;;9.90;3.90;;;;;;;;;;5122744;27;20063;-65
2023/12/22 06:51:18;;;;;;;11.95;3.85;;;;;;;;;;5121473;28;20495;-66
2023/12/22 06:53:45;;;;;;;24.00;5.88;;;;;;;;;;5102572;28;20039;-65
2023/12/22 06:56:18;;;;;;;10.05;3.60;;;;;;;;;;5122060;28;20172;-66
2023/12/22 06:58:46;;;;;;;;;;;;;;;;;;5122736;27;20040;-66
2023/12/22 07:01:12;;;;;;;10.27;3.28;;;;;;;;;;5123320;28;19953;-66
2023/12/22 07:03:38;;;;;;;12.00;3.72;;;;;;;;;;5123228;28;20490;-65
2023/12/22 07:06:04;;;;;;;11.85;4.22;;;;;;;;;;5121926;27;20152;-66
2023/12/22 07:08:30;;;;;;;11.65;3.40;;;;;;;;;;5122522;27;20443;-65
2023/12/22 07:10:57;;;;;;;16.45;4.53;;;;;;;;;;5114852;27;20050;-66
2023/12/22 07:13:23;;;;;;;10.52;3.28;;;;;;;;;;5112014;27;20071;-65
2023/12/22 07:15:49;;;;;;;16.95;5.95;;;;;;;;;;5114907;27;20039;-65
2023/12/22 07:18:15;;;;;;;10.05;3.35;;;;;;;;;;5100817;28;20043;-66
2023/12/22 07:20:41;;;;;;;8.88;3.00;;;;;;;;;;5121287;28;20051;-65
2023/12/22 07:23:07;;;;;;;8.48;3.53;;;;;;;;;;5120205;28;20049;-66
2023/12/22 07:25:38;;;;;;;7.28;3.13;;;;;;;;;;5122934;28;20095;-66
2023/12/22 07:28:05;;;;;;;11.13;4.13;;;;;;;;;;5069866;27;20046;-66
2023/12/22 07:30:31;;;;;;;10.70;3.80;;;;;;;;;;5122242;28;20459;-67
2023/12/22 07:32:57;;;;;;;11.95;3.63;;;;;;;;;;5102126;27;20071;-66
2023/12/22 07:35:23;;;;;;;15.32;5.10;;;;;;;;;;5121681;28;20428;-66
2023/12/22 07:37:49;;;;;;;13.00;3.80;;;;;;;;;;5121459;28;20106;-65
2023/12/22 07:40:15;;;;;;;12.13;3.92;;;;;;;;;;5103039;28;20522;-66
2023/12/22 07:42:41;;;;;;;12.38;3.47;;;;;;;;;;5120320;28;20039;-66
2023/12/22 07:45:09;;;;;;;8.23;2.78;;;;;;;;;;5115970;27;20058;-66
2023/12/22 07:47:36;;;;;;;12.20;3.35;;;;;;;;;;5120655;27;20043;-66
2023/12/22 07:50:02;;;;;;;18.35;4.68;;;;;;;;;;5084833;28;20047;-66
2023/12/22 07:52:28;;;;;;;9.40;3.47;;;;;;;;;;5119426;27;20161;-66
2023/12/22 07:54:54;;;;;;;10.23;3.72;;;;;;;;;;5121480;27;20661;-66
2023/12/22 07:57:20;;;;;;;12.77;3.25;;;;;;;;;;5119334;28;20531;-66
2023/12/22 07:59:47;;;;;;;14.02;4.45;;;;;;;;;;5124157;27;20042;-66
2023/12/22 08:02:13;;;;;;;11.65;3.85;;;;;;;;;;5100725;27;20386;-67
2023/12/22 08:04:39;;;;;;;10.00;3.83;;;;;;;;;;5100678;27;20042;-66
2023/12/22 08:07:05;;;;;;;13.30;3.33;;;;;;;;;;5098911;27;20604;-66
2023/12/22 08:09:32;;;;;;;6.72;2.70;;;;;;;;;;5103014;27;20577;-66
2023/12/22 08:11:58;;;;;;;12.48;4.07;;;;;;;;;;5117607;27;20316;-66
2023/12/22 08:14:25;;;;;;;7.32;2.75;;;;;;;;;;5120891;27;20031;-66
2023/12/22 08:16:52;;;;;;;8.68;2.40;;;;;;;;;;5103537;27;20039;-66
2023/12/22 08:19:18;;;;;;;5.90;2.58;;;;;;;;;;5121842;27;20042;-66
2023/12/22 08:21:44;;;;;;;5.20;2.85;;;;;;;;;;5121308;27;20050;-66
2023/12/22 08:24:11;;;;;;;9.88;3.13;;;;;;;;;;5122356;27;20043;-66
2023/12/22 08:26:37;;;;;;;11.00;3.35;;;;;;;;;;5119918;27;20413;-66
2023/12/22 08:29:03;;;;;;;10.07;2.78;;;;;;;;;;5123492;27;20685;-66
2023/12/22 08:31:29;;;;;;;7.18;2.55;;;;;;;;;;5121585;27;20039;-66
2023/12/22 08:33:55;;;;;;;5.70;2.40;;;;;;;;;;5121052;27;20229;-66
2023/12/22 08:36:21;;;;;;;6.90;2.60;;;;;;;;;;5121087;27;20031;-66
2023/12/22 08:38:48;;;;;;;9.68;2.67;;;;;;;;;;5122573;27;20153;-67
2023/12/22 08:41:14;;;;;;;9.13;2.47;;;;;;;;;;5121740;27;20047;-66
2023/12/22 08:43:40;;;;;;;10.07;3.00;;;;;;;;;;5122113;27;20410;-65
2023/12/22 08:46:06;;;;;;;8.43;2.58;;;;;;;;;;5121047;27;20163;-66
2023/12/22 08:48:32;;;;;;;7.82;2.60;;;;;;;;;;5121500;27;20071;-66
2023/12/22 08:50:59;;;;;;;7.15;2.67;;;;;;;;;;5120290;27;20051;-66
2023/12/22 08:53:25;;;;;;;6.93;2.20;;;;;;;;;;5100951;27;20551;-66
2023/12/22 08:55:51;;;;;;;5.25;2.13;;;;;;;;;;5120991;27;20118;-66
2023/12/22 08:58:18;;;;;;;10.73;2.75;;;;;;;;;;5121221;27;20050;-66
2023/12/22 09:00:44;;;;;;;10.35;2.70;;;;;;;;;;5120875;27;20984;-66
2023/12/22 09:03:10;;;;;;;6.55;2.55;;;;;;;;;;5120766;27;20405;-66
2023/12/22 09:05:36;;;;;;;7.60;2.83;;;;;;;;;;5121545;27;20171;-68
2023/12/22 09:08:02;;;;;;;4.55;1.88;;;;;;;;;;5121550;27;20127;-65
2023/12/22 09:10:28;;;;;;;12.82;2.70;;;;;;;;;;5121392;27;20047;-67
2023/12/22 09:12:54;;;;;;;7.65;2.22;;;;;;;;;;5121624;27;20054;-65
2023/12/22 09:15:21;;;;;;;5.05;2.63;;;;;;;;;;5117526;27;20409;-65
2023/12/22 09:17:47;;;;;;;5.85;2.10;;;;;;;;;;5103754;27;20350;-66
2023/12/22 09:20:13;;;;;;;8.05;2.40;;;;;;;;;;5118170;27;20494;-66
2023/12/22 09:22:39;;;;;;;10.88;2.95;;;;;;;;;;5118066;27;20451;-67
2023/12/22 09:25:05;;;;;;;7.63;2.58;;;;;;;;;;5121890;27;20077;-66
2023/12/22 09:27:31;;;;;;;7.35;3.03;;;;;;;;;;5120575;27;20123;-66
2023/12/22 09:29:58;;;;;;;6.97;2.55;;;;;;;;;;5102295;27;20043;-65
2023/12/22 09:32:24;;;;;;;9.18;2.28;;;;;;;;;;5120884;27;20346;-65
2023/12/22 09:34:50;;;;;;;4.80;2.03;;;;;;;;;;5121096;27;20347;-66
2023/12/22 09:37:16;;;;;;;6.35;2.60;;;;;;;;;;5120036;27;20058;-66
2023/12/22 09:39:42;;;;;;;11.77;2.65;;;;;;;;;;5121528;27;20058;-66
2023/12/22 09:42:08;;;;;;;7.85;3.10;;;;;;;;;;5120293;27;20077;-66
2023/12/22 09:44:36;;;;;;;12.13;3.28;;;;;;;;;;5119485;27;20043;-67
2023/12/22 09:47:04;;;;;;;7.00;2.38;;;;;;;;;;5119178;27;20634;-66
2023/12/22 09:49:30;;;;;;;7.28;3.20;;;;;;;;;;5116829;27;20044;-66
2023/12/22 09:51:57;;;;;;;7.70;2.50;;;;;;;;;;5116559;27;20039;-67
2023/12/22 09:54:25;;;;;;;11.80;2.80;;;;;;;;;;5101541;27;20047;-66
2023/12/22 09:56:52;;;;;;;12.82;2.85;;;;;;;;;;5120861;27;20053;-66
2023/12/22 09:59:19;;;;;;;13.02;3.20;;;;;;;;;;5121052;27;20085;-66
2023/12/22 10:01:46;;;;;;;9.75;2.65;;;;;;;;;;5120751;27;20068;-66
2023/12/22 10:04:13;;;;;;;7.72;2.10;;;;;;;;;;5101182;27;20118;-66
2023/12/22 10:06:39;;;;;;;5.28;2.15;;;;;;;;;;5120239;27;20042;-66
2023/12/22 10:09:08;;;;;;;9.95;2.40;;;;;;;;;;5100177;27;20469;-66
2023/12/22 10:11:36;;;;;;;8.95;2.38;;;;;;;;;;5119167;27;20046;-66
2023/12/22 10:14:06;;;;;;;5.63;2.80;;;;;;;;;;5119429;27;20039;-65
2023/12/22 10:16:32;;;;;;;6.85;2.60;;;;;;;;;;5120428;27;20039;-66
2023/12/22 10:18:59;;;;;;;5.43;2.13;;;;;;;;;;5100142;27;20043;-65
2023/12/22 10:21:25;;;;;;;8.05;1.90;;;;;;;;;;5118525;27;20055;-66
2023/12/22 10:23:52;;;;;;;13.18;3.60;;;;;;;;;;5119386;27;20126;-66
2023/12/22 10:26:18;;;;;;;6.93;2.50;;;;;;;;;;5120015;27;20122;-66
2023/12/22 10:28:44;;;;;;;8.90;2.90;;;;;;;;;;5084013;27;20062;-66
2023/12/22 10:31:11;;;;;;;18.08;3.10;;;;;;;;;;5119343;27;20047;-65
2023/12/22 10:33:37;;;;;;;10.38;3.33;;;;;;;;;;5119797;27;20039;-64
2023/12/22 10:36:04;;;;;;;8.52;2.70;;;;;;;;;;5118368;27;20525;-67
2023/12/22 10:38:36;;;;;;;5.18;2.15;;;;;;;;;;5119435;27;20039;-66
2023/12/22 10:41:03;;;;;;;10.77;2.70;;;;;;;;;;5119193;27;20084;-66
2023/12/22 10:43:30;;;;;;;7.25;2.83;;;;;;;;;;5119740;27;20039;-66
2023/12/22 10:45:56;;;;;;;5.20;2.00;;;;;;;;;;5119876;27;20442;-66
2023/12/22 10:48:24;;;;;;;9.05;2.50;;;;;;;;;;5100813;27;20051;-66
2023/12/22 10:50:50;;;;;;;3.95;2.30;;;;;;;;;;5117325;27;20054;-66
2023/12/22 10:53:17;;;;;;;5.20;2.47;;;;;;;;;;5117303;28;20039;-66
2023/12/22 10:55:43;;;;;;;4.70;2.17;;;;;;;;;;5100350;28;20670;-66
2023/12/22 10:58:10;;;;;;;9.40;2.33;;;;;;;;;;5119281;28;20510;-66
2023/12/22 11:00:38;;;;;;;4.85;2.30;;;;;;;;;;5121151;27;20561;-66
2023/12/22 11:03:08;;;;;;;6.47;2.28;;;;;;;;;;5100146;28;20092;-66
2023/12/22 11:05:34;;;;;;;6.05;2.40;;;;;;;;;;5117341;27;20035;-65
2023/12/22 11:08:04;;;;;;;7.60;2.47;;;;;;;;;;5099959;28;20435;-66
2023/12/22 11:10:31;;;;;;;11.13;1.95;;;;;;;;;;5119682;28;20470;-66
2023/12/22 11:12:58;;;;;;;9.27;2.03;;;;;;;;;;5118746;27;20039;-65
2023/12/22 11:15:26;;;;;;;6.88;1.90;;;;;;;;;;5117719;27;20130;-66
2023/12/22 11:17:53;;;;;;;4.20;1.67;;;;;;;;;;5081277;28;20165;-66
2023/12/22 11:20:19;;;;;;;5.22;2.13;;;;;;;;;;5065998;28;20116;-65
2023/12/22 11:22:45;;;;;;;5.20;1.88;;;;;;;;;;5116949;28;20523;-65
2023/12/22 11:25:12;;;;;;;3.95;1.90;;;;;;;;;;5119310;27;20392;-65
2023/12/22 11:27:38;;;;;;;7.63;2.60;;;;;;;;;;5118247;28;20050;-65
2023/12/22 11:30:08;;;;;;;6.78;2.15;;;;;;;;;;5118196;28;20051;-66
2023/12/22 11:32:35;;;;;;;8.48;1.90;;;;;;;;;;5119807;27;20046;-65
2023/12/22 11:35:02;;;;;;;7.20;2.25;;;;;;;;;;5121950;27;20372;-66
2023/12/22 11:37:29;;;;;;;6.22;1.88;;;;;;;;;;5122467;27;20575;-66
2023/12/22 11:39:56;;;;;;;6.97;2.30;;;;;;;;;;5103918;27;20047;-66
2023/12/22 11:42:24;;;;;;;7.03;2.50;;;;;;;;;;5102549;27;20054;-66
2023/12/22 11:44:50;;;;;;;6.47;2.08;;;;;;;;;;5123624;27;20043;-66
2023/12/22 11:47:16;;;;;;;7.38;2.13;;;;;;;;;;5102614;27;20127;-65
2023/12/22 11:49:42;;;;;;;5.97;2.25;;;;;;;;;;5123018;27;20079;-65
2023/12/22 11:52:19;;;;;;;5.78;1.73;;;;;;;;;;5122434;27;20358;-66
2023/12/22 11:54:49;;;;;;;6.50;2.63;;;;;;;;;;5122426;27;20047;-65
2023/12/22 11:57:28;;;;;;;4.30;2.17;;;;;;;;;;5102956;27;20066;-67
2023/12/22 11:59:55;;;;;;;3.58;1.60;;;;;;;;;;5123880;27;20088;-66
2023/12/22 12:02:21;;;;;;;8.32;3.35;;;;;;;;;;5122918;27;20113;-66
2023/12/22 12:04:52;;;;;;;7.40;2.72;;;;;;;;;;5123928;27;20069;-66
2023/12/22 12:07:39;;;;;;;8.10;2.30;;;;;;;;;;5122333;27;20051;-64
2023/12/22 12:10:05;;;;;;;7.50;2.10;;;;;;;;;;5123298;27;20047;-66
2023/12/22 12:12:34;;;;;;;7.13;1.95;;;;;;;;;;5120925;27;20035;-66
2023/12/22 12:15:02;;;;;;;7.20;2.85;;;;;;;;;;5120438;27;20039;-66
2023/12/22 12:17:30;;;;;;;7.40;2.28;;;;;;;;;;5121194;27;20050;-66
2023/12/22 12:19:56;;;;;;;7.15;2.33;;;;;;;;;;5122087;27;20725;-64
2023/12/22 12:22:24;;;;;;;8.35;3.05;;;;;;;;;;5121125;27;20524;-65
2023/12/22 12:24:54;;;;;;;10.00;2.28;;;;;;;;;;5122339;27;20039;-65
2023/12/22 12:27:20;;;;;;;5.88;2.47;;;;;;;;;;5122010;27;20606;-67
2023/12/22 12:29:47;;;;;;;10.52;2.60;;;;;;;;;;5102020;27;20100;-65
2023/12/22 12:32:24;;;;;;;8.68;3.03;;;;;;;;;;5122789;27;20039;-66
2023/12/22 12:34:52;;;;;;;5.63;2.25;;;;;;;;;;5122513;27;21347;-66
2023/12/22 12:37:20;;;;;;;10.88;3.22;;;;;;;;;;5102902;27;20448;-66
2023/12/22 12:39:47;;;;;;;11.73;2.47;;;;;;;;;;5121211;27;20081;-66
2023/12/22 12:42:15;;;;;;;6.10;2.20;;;;;;;;;;5120530;27;20047;-66
2023/12/22 12:44:43;;;;;;;9.65;2.63;;;;;;;;;;5121441;27;20126;-65
2023/12/22 12:47:13;;;;;;;9.48;2.22;;;;;;;;;;5120262;27;20173;-66
2023/12/22 12:49:39;;;;;;;4.07;1.92;;;;;;;;;;5122114;27;20418;-66
2023/12/22 12:52:06;;;;;;;7.13;2.65;;;;;;;;;;5120419;27;20325;-65
2023/12/22 12:54:32;;;;;;;6.00;2.10;;;;;;;;;;5103672;27;20075;-65
2023/12/22 12:56:58;;;;;;;3.80;1.98;;;;;;;;;;5123513;27;20031;-65
2023/12/22 12:59:25;;;;;;;5.78;2.20;;;;;;;;;;5126085;27;20047;-65
2023/12/22 13:01:51;;;;;;;8.20;3.60;;;;;;;;;;5125624;27;20043;-65
2023/12/22 13:04:18;;;;;;;7.90;2.08;;;;;;;;;;5124513;27;20139;-66
2023/12/22 13:06:44;;;;;;;5.47;1.77;;;;;;;;;;5120129;27;20043;-66
2023/12/22 13:09:10;;;;;;;6.47;2.42;;;;;;;;;;5122105;27;20051;-66
2023/12/22 13:11:37;;;;;;;4.38;1.55;;;;;;;;;;5114958;27;20318;-65
2023/12/22 13:14:05;;;;;;;6.30;3.33;;;;;;;;;;5122699;27;20355;-65
2023/12/22 13:16:31;;;;;;;5.63;2.00;;;;;;;;;;5122706;27;20197;-65
2023/12/22 13:18:58;;;;;;;7.88;2.53;;;;;;;;;;5122877;27;20058;-65
2023/12/22 13:21:24;;;;;;;10.93;2.10;;;;;;;;;;5120276;27;20107;-66
2023/12/22 13:24:10;;;;;;;9.45;1.98;;;;;;;;;;5121978;27;20332;-66
2023/12/22 13:26:36;;;;;;;6.80;2.20;;;;;;;;;;5102800;27;20485;-66
2023/12/22 13:29:02;;;;;;;7.45;2.10;;;;;;;;;;5122946;27;20440;-64
2023/12/22 13:31:31;;;;;;;7.03;1.88;;;;;;;;;;5120413;27;20309;-66
2023/12/22 13:33:57;;;;;;;10.30;2.30;;;;;;;;;;5121520;27;20096;-65
2023/12/22 13:36:23;;;;;;;7.28;3.25;;;;;;;;;;5100886;27;20039;-67
2023/12/22 13:38:49;;;;;;;6.53;1.77;;;;;;;;;;5120874;27;20039;-66
2023/12/22 13:41:16;;;;;;;6.90;2.60;;;;;;;;;;5120557;27;20122;-66
2023/12/22 13:43:44;;;;;;;5.18;2.67;;;;;;;;;;5102261;27;20250;-66
2023/12/22 13:46:11;;;;;;;4.90;1.63;;;;;;;;;;5100781;27;20122;-65
2023/12/22 13:48:37;;;;;;;5.90;1.73;;;;;;;;;;5101337;27;20164;-66
2023/12/22 13:51:03;;;;;;;5.05;1.58;;;;;;;;;;5120324;27;20406;-65
2023/12/22 13:53:30;;;;;;;8.93;1.65;;;;;;;;;;5120666;27;20099;-65
2023/12/22 13:55:56;;;;;;;4.00;1.75;;;;;;;;;;5101607;27;20137;-66
2023/12/22 13:58:22;;;;;;;5.40;1.65;;;;;;;;;;5118645;27;20043;-65
2023/12/22 14:00:49;;;;;;;6.13;1.58;;;;;;;;;;5116626;27;20050;-67
2023/12/22 14:03:16;;;;;;;2.97;1.80;;;;;;;;;;5093062;27;20106;-65
2023/12/22 14:05:43;;;;;;;5.82;1.83;;;;;;;;;;5120926;27;20039;-65
2023/12/22 14:08:09;;;;;;;2.72;1.48;;;;;;;;;;5083916;27;20055;-66
2023/12/22 14:10:35;;;;;;;5.65;1.83;;;;;;;;;;5121458;27;20242;-66
2023/12/22 14:13:02;;;;;;;4.18;1.42;;;;;;;;;;5121348;27;20370;-65
2023/12/22 14:15:31;;;;;;;4.13;1.35;;;;;;;;;;5121752;27;20058;-67
2023/12/22 14:17:57;;;;;;;3.17;1.27;;;;;;;;;;5115638;27;20039;-67
2023/12/22 14:20:24;;;;;;;5.45;1.45;;;;;;;;;;5100841;27;20047;-66
2023/12/22 14:22:51;;;;;;;6.80;1.67;;;;;;;;;;5119268;27;20058;-66
2023/12/22 14:25:17;;;;;;;4.68;1.60;;;;;;;;;;5117656;27;20542;-67
2023/12/22 14:27:43;;;;;;;6.65;1.50;;;;;;;;;;5115890;27;20506;-65
2023/12/22 14:30:09;;;;;;;4.60;1.70;;;;;;;;;;5116429;27;20043;-65
2023/12/22 14:32:35;;;;;;;5.72;2.40;;;;;;;;;;5118609;27;20682;-65